メインページ
METAR-TAF:

METAR-TAF

空港 :

エドモントン国際空港

エドモントン, アルバータ州, カナダ

緯度: 53-18N, 経度: 113-35W, 海抜: 715m

現時点の気象観測

当レポートは27分前の19:00(UTC)に作成
西の風 10kt
気温 9°C
湿度 66%
気圧 1020 hPa
視程: 24.1km
高度2400ftの千切れ雲あり, 塔状積雲.
高度6000ftの千切れ雲あり
高度7000ftの千切れ雲あり
高度10000ftの千切れ雲あり

METAR: CYEG 181900Z 28010KT 15SM BKN024TCU BKN060 BKN070 BKN100 09/03 A3013 RMK TCU5SC1ACC1AC1 AC TR SLP228

時間: 13:27 (19:27 UTC)

予報

当レポートは1時間49分前の17:38(UTC)に作成
予報は18日の 18時(UTC)から 19日の 18時(UTC)まで有効
西の風 8kt
視程: 10km
高度1500ftの雲はほとんどない
高度5000ftの雲は散在している
高度9000ftの千切れ雲あり
18日の 18時(UTC)から 18日の 20時(UTC)まで一時的に
高度5000ftの雲はほとんどない
高度10000ftの雲は散在している
18日の 2000時(UTC)から
西の風 8kt
視程: 10km
高度3000ftの千切れ雲あり
18日の 20時(UTC)から 19日の 01時(UTC)まで一時的に
視程: 10km
高度2000ftの千切れ雲あり
弱いにわか雨
19日の 0900時(UTC)から
南西の風 5kt
視程: 10km
高度3000ftの雲は散在している
19日の 09時(UTC)から 19日の 12時(UTC)まで一時的に
高度3000ftの千切れ雲あり
確率 30%
19日の 09時(UTC)から 19日の 12時(UTC)まで
視程: 1.6km

TAF: CYEG 181738Z 1818/1918 28008KT P6SM FEW015 SCT050 BKN090 TEMPO 1818/1820 FEW050 SCT100 FM182000 27008KT P6SM BKN030 TEMPO 1820/1901 P6SM -SHRA BKN020 FM190900 23005KT P6SM SCT030 TEMPO 1909/1912 BKN030 PROB30 1909/1912 1SM BR RMK NXT FCST BY 182100Z

4,000以上の空港の気象観測と天気予報(METAR報とTAF報)

利用可能な観測所は地図上に黄色い丸と赤い丸で示す。

丸の上にカーソルを重ねると観測所名を参照できる。

次にクリックすると気象観測と天気予報を参照できる。

マップの切り替え:黒色「×」印の緑ボタンをクリックして拡大、「-」印の緑ボタンをクリックして縮小、緑色の三角印をクリックして隣りの地図に切り替え


METAR-TAF: